Time;durP1;ratioP1;P1;durP2;ratioP2;P2;SDS_P1;SDS_P2;PMS_P1;PMS_P2;Temp;Humidity;BMP_temperature;BMP_pressure;BME280_temperature;BME280_humidity;BME280_pressure;Samples;Min_cycle;Max_cycle;Signal;HPM_P1;HPM_P2
2021/10/25 00:01:44;;;;;;;;;8.00;7.00;;;;;13.72;51.94;101648.97;5045135;28;45411;-85
2021/10/25 00:04:10;;;;;;;;;13.00;11.00;;;;;13.57;52.31;101621.41;5045037;28;47886;-85
2021/10/25 00:06:38;;;;;;;;;8.25;8.25;;;;;13.70;52.88;101650.59;5062904;28;45543;-85
2021/10/25 00:09:04;;;;;;;;;15.25;12.75;;;;;13.38;53.45;101609.25;5044688;28;45486;-85
2021/10/25 00:11:30;;;;;;;;;23.50;18.50;;;;;13.41;53.91;101618.94;5062077;28;45387;-85
2021/10/25 00:13:55;;;;;;;;;19.75;18.00;;;;;13.57;53.55;101647.44;5044531;28;47659;-85
2021/10/25 00:16:21;;;;;;;;;17.25;16.00;;;;;13.37;53.67;101616.97;5044167;28;45446;-85
2021/10/25 00:18:47;;;;;;;;;15.25;15.00;;;;;13.52;53.80;101637.63;5062368;28;45387;-85
2021/10/25 00:21:12;;;;;;;;;19.75;18.25;;;;;13.58;54.26;101650.94;5043754;28;45509;-85
2021/10/25 00:23:38;;;;;;;;;19.50;17.50;;;;;13.53;54.59;101648.13;5062430;28;46131;-84
2021/10/25 00:26:04;;;;;;;;;23.25;21.50;;;;;13.46;54.55;101630.44;5061138;28;45444;-85
2021/10/25 00:28:30;;;;;;;;;21.50;19.25;;;;;13.46;54.70;101623.53;5060242;28;45324;-85
2021/10/25 00:30:56;;;;;;;;;19.50;19.50;;;;;13.30;54.87;101600.19;5061621;28;45496;-85
2021/10/25 00:33:22;;;;;;;;;22.25;17.75;;;;;13.43;54.91;101625.13;5060323;28;45312;-85
2021/10/25 00:35:47;;;;;;;;;24.75;23.25;;;;;13.45;54.79;101639.06;5042732;28;45436;-85
2021/10/25 00:38:14;;;;;;;;;33.00;28.25;;;;;13.39;55.26;101631.84;5042740;28;45346;-85
2021/10/25 00:40:40;;;;;;;;;22.00;22.00;;;;;13.29;55.30;101611.41;5056298;28;45442;-86
2021/10/25 00:43:06;;;;;;;;;24.75;24.00;;;;;13.32;55.11;101606.34;5061728;28;45493;-85
2021/10/25 00:45:32;;;;;;;;;29.50;27.25;;;;;13.35;55.02;101608.19;5040856;28;45374;-84
2021/10/25 00:47:57;;;;;;;;;27.00;26.00;;;;;13.38;55.35;101623.97;5058854;28;45562;-84
2021/10/25 00:50:24;;;;;;;;;27.75;27.00;;;;;13.43;55.46;101628.59;5059306;28;45481;-86
2021/10/25 00:52:51;;;;;;;;;25.50;23.50;;;;;13.21;55.02;101589.38;5046213;28;47076;-87
2021/10/25 00:55:17;;;;;;;;;29.50;27.00;;;;;13.13;55.08;101578.59;5064732;28;45309;-88
2021/10/25 00:57:43;;;;;;;;;29.50;29.00;;;;;13.20;55.02;101588.50;5073313;28;44854;-84
2021/10/25 01:00:11;;;;;;;;;28.00;26.00;;;;;13.44;55.13;101629.50;5066811;28;45602;-85
2021/10/25 01:02:37;;;;;;;;;28.75;26.50;;;;;13.39;55.19;101625.75;5048610;28;46908;-85
2021/10/25 01:05:04;;;;;;;;;30.50;29.00;;;;;13.46;55.30;101638.25;5060805;28;45471;-86
2021/10/25 01:07:29;;;;;;;;;25.75;25.75;;;;;13.31;54.94;101610.69;5059550;28;45305;-85
2021/10/25 01:09:56;;;;;;;;;23.25;23.25;;;;;13.30;55.03;101606.31;5059592;28;45500;-85
2021/10/25 01:12:23;;;;;;;;;28.00;25.00;;;;;13.53;54.84;101642.94;5036619;28;46705;-86
2021/10/25 01:14:49;;;;;;;;;31.25;29.00;;;;;13.55;55.13;101649.06;5027379;28;45478;-85
2021/10/25 01:17:14;;;;;;;;;28.00;28.00;;;;;13.43;55.23;101622.50;5040290;28;45450;-85
2021/10/25 01:19:40;;;;;;;;;27.25;25.50;;;;;13.49;54.88;101635.78;5057707;28;45331;-86
2021/10/25 01:22:06;;;;;;;;;29.75;28.75;;;;;13.29;54.88;101593.19;5057445;28;45576;-85
2021/10/25 01:24:31;;;;;;;;;30.50;28.75;;;;;13.55;55.15;101628.25;5057041;28;45348;-85
2021/10/25 01:26:57;;;;;;;;;27.75;24.50;;;;;13.51;55.08;101617.63;5057748;28;45304;-85
2021/10/25 01:29:22;;;;;;;;;31.25;29.75;;;;;13.65;54.75;101642.59;5057468;28;45430;-88
2021/10/25 01:31:48;;;;;;;;;28.50;24.50;;;;;13.51;54.64;101618.53;5057054;28;45713;-85
2021/10/25 01:34:15;;;;;;;;;23.75;22.25;;;;;13.66;54.57;101652.19;5057989;28;45221;-86
2021/10/25 01:36:41;;;;;;;;;29.50;27.50;;;;;13.70;54.49;101650.59;5057388;28;45484;-85
2021/10/25 01:39:10;;;;;;;;;28.25;26.25;;;;;13.67;54.59;101648.75;5059091;28;45488;-85
2021/10/25 01:41:36;;;;;;;;;30.25;25.00;;;;;13.56;54.89;101618.75;5057542;28;45351;-86
2021/10/25 01:44:02;;;;;;;;;28.50;25.75;;;;;13.64;54.94;101625.19;5057465;28;45400;-85
2021/10/25 01:46:28;;;;;;;;;26.00;25.00;;;;;13.66;54.74;101625.28;5038563;28;45399;-84
2021/10/25 01:48:54;;;;;;;;;26.50;25.25;;;;;13.68;54.43;101621.00;5057329;28;45685;-85
2021/10/25 01:51:20;;;;;;;;;26.75;25.25;;;;;13.72;54.65;101622.94;5056789;28;46235;-85
2021/10/25 01:53:46;;;;;;;;;33.50;29.75;;;;;13.61;55.02;101609.44;5057680;28;45240;-84
2021/10/25 01:56:13;;;;;;;;;27.00;26.25;;;;;13.82;54.65;101645.94;5039434;28;45280;-85
2021/10/25 01:58:38;;;;;;;;;23.00;22.75;;;;;13.61;54.68;101605.13;5056440;28;45554;-86
2021/10/25 02:01:06;;;;;;;;;29.25;28.25;;;;;13.50;54.63;101590.75;5038815;28;47726;-89
2021/10/25 02:03:34;;;;;;;;;29.75;27.75;;;;;13.79;54.86;101640.59;5056794;28;45359;-89
2021/10/25 02:06:00;;;;;;;;;29.00;27.25;;;;;13.77;55.13;101637.94;5057515;28;45294;-86
2021/10/25 02:08:26;;;;;;;;;28.00;26.75;;;;;13.72;55.46;101626.41;5057162;28;45489;-85
2021/10/25 02:10:52;;;;;;;;;27.50;24.25;;;;;13.69;55.59;101621.09;5058161;28;46294;-85
2021/10/25 02:13:20;;;;;;;;;34.75;31.00;;;;;13.61;55.70;101615.53;5057553;28;45389;-85
2021/10/25 02:15:47;;;;;;;;;35.75;31.75;;;;;13.66;55.80;101614.88;5057731;28;45433;-88
2021/10/25 02:18:13;;;;;;;;;31.75;31.00;;;;;13.52;55.90;101607.31;5050079;28;45606;-87
2021/10/25 02:20:40;;;;;;;;;30.75;30.25;;;;;13.39;56.46;101586.72;5056921;28;46252;-88
2021/10/25 02:23:07;;;;;;;;;33.00;29.75;;;;;13.50;56.26;101616.75;5057771;28;45320;-88
2021/10/25 02:25:34;;;;;;;;;34.00;30.50;;;;;13.28;56.62;101597.53;5039213;28;45377;-88
2021/10/25 02:28:00;;;;;;;;;33.25;31.00;;;;;13.43;56.71;101632.91;5058683;28;45347;-88
2021/10/25 02:30:26;;;;;;;;;36.25;33.00;;;;;13.22;57.00;101599.84;5056902;28;47866;-85
2021/10/25 02:32:51;;;;;;;;;35.25;32.25;;;;;13.33;57.08;101618.53;5057101;28;45413;-85
2021/10/25 02:35:17;;;;;;;;;26.00;25.75;;;;;13.27;57.45;101606.16;5057354;28;45363;-85
2021/10/25 02:37:43;;;;;;;;;34.00;32.00;;;;;13.35;57.61;101621.22;5058262;28;45609;-84
2021/10/25 02:40:10;;;;;;;;;37.25;29.50;;;;;13.08;57.92;101575.78;5056760;28;46668;-85
2021/10/25 02:42:36;;;;;;;;;37.25;32.75;;;;;13.24;58.51;101599.91;5038895;28;45294;-84
2021/10/25 02:45:03;;;;;;;;;42.75;33.00;;;;;13.19;58.57;101599.72;5039087;28;45486;-84
2021/10/25 02:47:28;;;;;;;;;33.75;30.25;;;;;13.23;58.44;101604.22;5038921;28;45593;-84
2021/10/25 02:49:54;;;;;;;;;36.00;32.00;;;;;13.23;59.07;101601.59;5038601;28;47105;-85
2021/10/25 02:52:19;;;;;;;;;33.75;30.75;;;;;13.14;59.73;101575.19;5038191;28;45477;-85
2021/10/25 02:54:45;;;;;;;;;35.75;31.00;;;;;13.18;59.19;101587.53;5057627;28;45352;-85
2021/10/25 02:57:11;;;;;;;;;38.50;32.25;;;;;13.05;59.91;101569.56;5058111;28;45435;-88
2021/10/25 02:59:37;;;;;;;;;37.75;32.50;;;;;12.97;59.80;101548.41;5057730;28;45343;-89
2021/10/25 03:02:03;;;;;;;;;39.25;30.00;;;;;13.21;60.34;101592.88;5056628;28;45518;-89
2021/10/25 03:04:29;;;;;;;;;36.25;31.00;;;;;13.15;60.26;101584.78;5057295;28;45259;-88
2021/10/25 03:06:55;;;;;;;;;34.25;31.00;;;;;13.09;60.45;101574.09;5053490;28;45244;-86
2021/10/25 03:09:20;;;;;;;;;30.25;26.25;;;;;13.07;60.72;101565.31;5057091;28;45685;-85
2021/10/25 03:11:46;;;;;;;;;27.75;26.25;;;;;13.08;60.42;101570.59;5058199;28;45253;-86
2021/10/25 03:14:12;;;;;;;;;33.50;31.25;;;;;13.05;61.17;101564.38;5041705;28;45363;-87
2021/10/25 03:16:37;;;;;;;;;32.25;28.75;;;;;12.98;61.08;101555.38;5061684;28;45423;-86
2021/10/25 03:19:03;;;;;;;;;30.25;24.75;;;;;13.12;61.12;101575.13;5058044;28;45915;-83
2021/10/25 03:21:29;;;;;;;;;36.00;31.50;;;;;12.98;61.47;101555.38;5037995;28;45282;-85
2021/10/25 03:23:58;;;;;;;;;35.00;31.00;;;;;13.07;61.46;101567.94;5055973;28;45540;-85
2021/10/25 03:26:24;;;;;;;;;30.00;29.00;;;;;13.22;61.83;101585.94;5053914;28;45344;-85
2021/10/25 03:28:50;;;;;;;;;32.25;29.50;;;;;13.23;62.14;101588.59;5055450;28;45264;-85
2021/10/25 03:31:19;;;;;;;;;31.25;28.50;;;;;13.16;62.31;101560.56;5055577;28;45462;-84
2021/10/25 03:33:46;;;;;;;;;30.25;27.00;;;;;13.24;62.44;101568.72;5056149;28;45370;-84
2021/10/25 03:36:13;;;;;;;;;30.50;29.25;;;;;13.37;62.14;101577.97;5055110;28;45639;-84
2021/10/25 03:38:39;;;;;;;;;26.50;23.00;;;;;13.28;61.89;101573.25;5036659;28;46974;-84
2021/10/25 03:44:49;;;;;;;;;27.75;26.50;;;;;13.21;62.57;101551.28;5065551;28;45578;-84
2021/10/25 03:51:53;;;;;;;;;19.00;17.50;;;;;13.29;62.24;101578.50;5055794;28;45966;-85
2021/10/25 04:29:04;;;;;;;;;8.25;7.75;;;;;12.74;66.12;101552.53;5059245;28;45249;-85
2021/10/25 04:31:30;;;;;;;;;9.00;8.25;;;;;12.75;65.91;101562.97;5039145;28;46920;-88
2021/10/25 04:33:56;;;;;;;;;8.75;8.75;;;;;12.65;66.47;101552.97;5058025;28;45436;-87
2021/10/25 04:36:21;;;;;;;;;10.00;8.50;;;;;12.59;66.43;101539.69;5040369;28;45412;-85
2021/10/25 04:38:47;;;;;;;;;14.00;9.75;;;;;12.57;66.35;101549.09;5040698;28;45325;-85
2021/10/25 04:41:12;;;;;;;;;11.75;10.50;;;;;12.48;66.88;101546.94;5057884;28;46368;-87
2021/10/25 04:43:40;;;;;;;;;14.00;12.25;;;;;12.53;66.73;101567.13;5059280;28;45375;-87
2021/10/25 04:46:05;;;;;;;;;10.25;10.25;;;;;12.29;66.65;101537.38;5060561;28;45296;-89
2021/10/25 04:48:31;;;;;;;;;14.50;11.50;;;;;12.55;66.56;101572.41;5064278;28;45589;-86
2021/10/25 04:50:57;;;;;;;;;11.00;9.00;;;;;12.63;66.73;101571.09;5045442;28;47690;-87
2021/10/25 04:53:22;;;;;;;;;11.50;11.25;;;;;12.67;66.33;101579.91;5061452;28;45402;-86
2021/10/25 04:55:48;;;;;;;;;10.00;9.50;;;;;12.58;66.62;101556.97;5040301;28;45323;-84
2021/10/25 04:58:13;;;;;;;;;11.00;8.50;;;;;12.76;66.58;101575.16;5043336;28;45309;-87
2021/10/25 05:00:40;;;;;;;;;12.25;10.75;;;;;12.64;66.32;101543.38;5025809;28;46882;-88
2021/10/25 05:03:06;;;;;;;;;9.50;9.00;;;;;12.83;66.47;101564.25;5063616;28;45182;-89
2021/10/25 05:05:32;;;;;;;;;10.00;9.25;;;;;12.80;66.09;101545.00;5058449;28;45226;-88
2021/10/25 05:07:58;;;;;;;;;9.75;9.75;;;;;12.93;66.58;101565.56;5041131;28;45309;-89
2021/10/25 05:10:24;;;;;;;;;11.50;10.50;;;;;12.90;66.38;101554.13;5038045;28;47704;-88
2021/10/25 05:12:49;;;;;;;;;11.50;11.50;;;;;13.03;66.53;101564.31;5041462;28;45438;-88
2021/10/25 05:15:15;;;;;;;;;8.75;8.50;;;;;13.08;66.38;101559.31;5059283;28;45451;-87
2021/10/25 05:17:41;;;;;;;;;11.00;10.00;;;;;12.84;66.41;101519.25;5062988;28;45656;-88
2021/10/25 05:20:08;;;;;;;;;12.75;12.75;;;;;12.90;66.19;101520.34;5064190;28;45503;-89
2021/10/25 05:22:33;;;;;;;;;15.75;13.25;;;;;12.96;66.21;101533.63;5061136;28;45352;-85
2021/10/25 05:25:00;;;;;;;;;13.50;12.00;;;;;13.07;66.00;101561.00;5063848;28;45404;-88
2021/10/25 05:27:25;;;;;;;;;12.25;10.25;;;;;13.05;66.34;101564.38;5059014;28;45662;-88
2021/10/25 05:29:51;;;;;;;;;10.00;9.00;;;;;12.90;66.19;101535.94;5058640;28;45430;-88
2021/10/25 05:32:17;;;;;;;;;18.50;13.25;;;;;12.97;66.68;101551.00;5060205;28;45166;-88
2021/10/25 05:34:43;;;;;;;;;13.75;12.50;;;;;12.78;66.85;101520.69;5064760;28;45453;-87
2021/10/25 05:37:10;;;;;;;;;10.75;10.75;;;;;12.93;67.06;101549.97;5059276;28;45281;-85
2021/10/25 05:39:36;;;;;;;;;11.75;11.75;;;;;12.94;67.02;101546.56;5058005;28;46074;-84
2021/10/25 05:42:07;;;;;;;;;22.50;21.50;;;;;12.82;67.32;101528.69;5057713;28;45471;-85
2021/10/25 05:44:33;;;;;;;;;13.25;11.00;;;;;12.90;67.67;101546.34;5040985;28;45461;-85
2021/10/25 05:47:00;;;;;;;;;12.00;11.00;;;;;12.53;67.82;101484.00;5040409;28;45733;-85
2021/10/25 05:49:25;;;;;;;;;14.00;14.00;;;;;12.78;67.76;101523.28;5040609;28;46382;-85
2021/10/25 05:51:51;;;;;;;;;15.25;15.25;;;;;12.86;67.97;101534.91;5058059;28;45434;-85
2021/10/25 05:54:17;;;;;;;;;19.25;16.25;;;;;12.81;67.88;101520.81;5059084;28;45398;-86
2021/10/25 05:56:43;;;;;;;;;16.75;16.75;;;;;12.76;68.07;101517.13;5059605;28;45308;-85
2021/10/25 05:59:10;;;;;;;;;15.00;13.00;;;;;12.68;67.90;101493.34;5058975;28;46855;-85
2021/10/25 06:01:44;;;;;;;;;16.00;13.00;;;;;12.76;68.15;101512.78;5069281;28;45208;-85
2021/10/25 06:04:12;;;;;;;;;16.00;15.25;;;;;12.75;68.57;101510.13;5049362;28;45302;-89
2021/10/25 06:06:38;;;;;;;;;15.50;15.00;;;;;12.82;68.12;101533.88;5061929;28;45787;-82
2021/10/25 06:09:05;;;;;;;;;17.50;14.50;;;;;12.82;68.85;101530.38;5057475;28;46020;-82
2021/10/25 06:11:32;;;;;;;;;18.00;15.25;;;;;12.66;68.29;101508.88;5038393;28;45409;-82
2021/10/25 06:14:01;;;;;;;;;13.50;11.25;;;;;12.88;68.12;101538.47;5057802;28;45549;-84
2021/10/25 06:16:42;;;;;;;;;13.75;13.00;;;;;12.81;68.02;101520.81;5058512;28;45488;-84
2021/10/25 06:19:10;;;;;;;;;13.00;12.50;;;;;12.95;68.52;101529.25;5040463;28;45589;-82
2021/10/25 06:21:37;;;;;;;;;13.75;12.75;;;;;13.01;68.70;101530.41;5056981;28;45454;-80
2021/10/25 06:24:03;;;;;;;;;12.25;11.00;;;;;13.01;68.33;101532.13;5057206;28;45347;-82
2021/10/25 06:26:29;;;;;;;;;17.75;14.25;;;;;13.00;67.95;101543.34;5037289;28;45587;-84
2021/10/25 06:28:55;;;;;;;;;14.00;14.00;;;;;12.90;68.24;101543.75;5041906;28;46245;-83
2021/10/25 06:31:21;;;;;;;;;17.50;15.25;;;;;12.89;67.72;101550.66;5056453;28;45496;-81
2021/10/25 06:33:48;;;;;;;;;18.75;14.75;;;;;12.94;67.43;101564.75;5056713;28;45601;-82
2021/10/25 06:36:18;;;;;;;;;17.75;17.50;;;;;12.76;67.79;101527.50;5058145;28;45316;-82
2021/10/25 06:38:52;;;;;;;;;18.00;16.50;;;;;12.84;67.79;101553.03;5058162;28;45450;-85
2021/10/25 06:41:20;;;;;;;;;15.00;12.75;;;;;12.92;67.71;101573.31;5058667;28;45383;-82
2021/10/25 06:43:46;;;;;;;;;23.75;21.25;;;;;12.88;67.88;101558.38;5057256;28;45399;-84
2021/10/25 06:46:12;;;;;;;;;19.50;18.50;;;;;12.91;67.92;101569.78;5037670;28;45486;-84
2021/10/25 06:48:38;;;;;;;;;18.00;15.25;;;;;12.95;67.82;101563.94;5036693;28;45519;-82
2021/10/25 06:51:04;;;;;;;;;18.75;17.25;;;;;13.00;67.66;101566.75;5036254;28;45332;-83
2021/10/25 06:53:29;;;;;;;;;14.00;14.00;;;;;13.04;67.63;101572.97;5038737;28;45268;-82
2021/10/25 06:55:55;;;;;;;;;19.25;16.00;;;;;13.09;67.88;101571.50;5037657;28;45451;-81
2021/10/25 06:58:21;;;;;;;;;16.25;16.25;;;;;13.07;67.68;101565.31;5036521;28;45367;-85
2021/10/25 07:00:48;;;;;;;;;18.50;15.50;;;;;13.01;67.82;101561.59;5040993;28;45782;-85
2021/10/25 07:03:14;;;;;;;;;16.25;14.00;;;;;13.15;67.85;101575.28;5057814;28;45357;-86
2021/10/25 07:05:39;;;;;;;;;21.75;17.50;;;;;13.19;67.71;101586.69;5057517;28;45708;-79
2021/10/25 07:08:06;;;;;;;;;19.25;18.25;;;;;13.24;67.50;101584.31;5056590;28;45465;-83
2021/10/25 07:10:33;;;;;;;;;17.00;13.25;;;;;13.26;67.78;101586.16;5056275;28;45431;-86
2021/10/25 07:12:59;;;;;;;;;23.50;16.75;;;;;13.18;67.48;101568.41;5039939;28;45276;-85
2021/10/25 07:15:27;;;;;;;;;18.00;16.00;;;;;13.29;67.34;101583.72;5060448;28;45683;-86
2021/10/25 07:18:00;;;;;;;;;18.75;15.00;;;;;13.20;67.35;101562.50;5062363;28;45376;-87
2021/10/25 07:26:23;;;;;;;;;17.75;16.75;;;;;13.34;68.01;101583.00;5064566;28;45391;-85
2021/10/25 08:04:26;;;;;;;;;14.25;12.25;;;;;13.57;69.33;101630.94;5063619;28;45550;-77
2021/10/25 08:07:00;;;;;;;;;14.00;13.00;;;;;13.53;69.20;101619.50;5062891;28;45322;-81
2021/10/25 08:12:16;;;;;;;;;16.00;15.00;;;;;13.61;69.33;101633.75;5061412;28;45355;-83
2021/10/25 08:14:48;;;;;;;;;14.50;13.75;;;;;13.40;69.01;101597.22;5040809;28;45645;-82
2021/10/25 08:17:19;;;;;;;;;14.50;12.25;;;;;13.46;68.92;101599.22;5058955;28;45344;-81
2021/10/25 08:19:45;;;;;;;;;15.50;12.75;;;;;13.66;69.05;101635.69;5059243;28;45272;-80
2021/10/25 08:22:14;;;;;;;;;15.50;15.00;;;;;13.68;68.95;101626.22;5061205;28;45805;-83
2021/10/25 08:24:44;;;;;;;;;20.00;16.75;;;;;13.69;69.04;101625.38;5051402;28;45529;-86
2021/10/25 08:27:10;;;;;;;;;14.00;13.25;;;;;13.67;68.63;101620.13;5045581;28;45395;-85
2021/10/25 08:29:39;;;;;;;;;17.00;14.00;;;;;13.66;69.10;101615.75;5068535;28;45423;-83
2021/10/25 08:32:23;;;;;;;;;16.25;15.00;;;;;13.56;69.25;101595.34;5045998;28;47686;-82
2021/10/25 08:35:04;;;;;;;;;15.75;14.00;;;;;13.56;69.09;101597.94;5035324;28;45406;-81
2021/10/25 08:39:59;;;;;;;;;17.25;15.75;;;;;13.43;69.43;101583.50;5059433;28;45473;-81
2021/10/25 08:42:30;;;;;;;;;17.50;15.00;;;;;13.46;69.33;101600.13;5058477;28;45392;-81
2021/10/25 08:45:11;;;;;;;;;19.75;16.75;;;;;13.53;69.54;101597.78;5058521;28;45271;-82
2021/10/25 08:47:40;;;;;;;;;18.00;17.00;;;;;13.49;69.57;101588.97;5058453;28;45375;-84
2021/10/25 08:50:11;;;;;;;;;22.75;18.75;;;;;13.59;69.55;101611.09;5059901;28;45391;-82
2021/10/25 08:52:38;;;;;;;;;19.25;15.25;;;;;13.57;69.75;101612.72;5062277;28;46037;-82
2021/10/25 08:55:09;;;;;;;;;23.25;18.25;;;;;13.52;69.65;101601.22;5063307;28;45852;-83
2021/10/25 08:57:36;;;;;;;;;21.00;19.00;;;;;13.56;69.31;101595.34;5043361;28;45419;-84
2021/10/25 09:00:07;;;;;;;;;14.75;14.75;;;;;13.60;69.31;101597.25;5061322;28;45626;-83
2021/10/25 09:02:34;;;;;;;;;19.00;16.75;;;;;13.74;69.37;101603.97;5058957;28;46140;-82
2021/10/25 09:05:01;;;;;;;;;20.75;18.75;;;;;13.72;69.53;101587.38;5058812;28;45880;-84
2021/10/25 09:07:27;;;;;;;;;21.00;16.25;;;;;13.68;69.08;101574.16;5057665;28;45292;-84
2021/10/25 09:09:54;;;;;;;;;15.50;14.00;;;;;13.59;69.53;101590.28;5059353;28;45500;-83
2021/10/25 09:12:20;;;;;;;;;20.75;17.25;;;;;13.52;69.60;101586.50;5041169;28;45785;-86
2021/10/25 09:14:45;;;;;;;;;21.75;18.50;;;;;13.51;70.12;101584.72;5041867;28;45331;-84
2021/10/25 09:17:11;;;;;;;;;20.50;14.25;;;;;13.57;69.77;101591.91;5057632;28;45305;-85
2021/10/25 09:19:41;;;;;;;;;17.50;15.50;;;;;13.68;70.04;101589.78;5040953;28;45488;-85
2021/10/25 09:22:15;;;;;;;;;19.00;15.00;;;;;13.68;69.39;101574.16;5056991;28;45467;-83
2021/10/25 09:24:53;;;;;;;;;17.50;17.00;;;;;13.85;69.41;101577.50;5057234;28;46004;-84
2021/10/25 09:27:32;;;;;;;;;16.25;13.25;;;;;13.91;69.53;101570.00;5058438;28;45270;-84
2021/10/25 09:30:07;;;;;;;;;17.75;16.25;;;;;14.08;69.21;101601.97;5062972;28;45510;-86
2021/10/25 09:32:34;;;;;;;;;14.75;14.50;;;;;13.89;69.03;101553.41;5059876;28;45456;-85
2021/10/25 09:35:03;;;;;;;;;18.50;17.00;;;;;14.18;68.86;101591.13;5057370;28;45517;-82
2021/10/25 09:37:37;;;;;;;;;20.00;18.00;;;;;14.20;68.25;101592.03;5056923;28;45345;-83
2021/10/25 09:40:13;;;;;;;;;18.75;17.00;;;;;14.23;68.42;101586.97;5062059;28;45407;-84
2021/10/25 09:42:55;;;;;;;;;17.75;15.25;;;;;14.27;68.00;101585.38;5063478;28;45641;-83
2021/10/25 09:50:56;;;;;;;;;18.00;16.00;;;;;14.39;67.67;101585.91;5058789;28;45212;-83
2021/10/25 09:53:43;;;;;;;;;19.00;17.75;;;;;14.52;67.73;101586.41;5057371;28;46131;-82
2021/10/25 09:56:14;;;;;;;;;17.75;15.50;;;;;14.54;67.48;101585.63;5061066;28;45351;-82
2021/10/25 09:58:47;;;;;;;;;20.00;16.75;;;;;14.63;67.25;101579.03;5064045;28;45353;-81
2021/10/25 10:01:14;;;;;;;;;20.50;18.00;;;;;14.67;67.06;101578.34;5068292;28;45400;-82
2021/10/25 10:03:45;;;;;;;;;18.50;16.25;;;;;14.74;67.07;101590.78;5063093;28;45455;-83
2021/10/25 10:06:11;;;;;;;;;18.25;17.00;;;;;14.81;67.52;101590.22;5047934;28;45476;-83
2021/10/25 10:08:38;;;;;;;;;20.25;18.75;;;;;14.92;67.19;101592.38;5066362;28;45331;-84
2021/10/25 10:11:05;;;;;;;;;22.50;19.50;;;;;15.00;67.03;101588.34;5068644;28;45566;-83
2021/10/25 10:13:31;;;;;;;;;21.50;20.25;;;;;15.11;67.11;101596.59;5077770;28;46611;-83
2021/10/25 10:15:58;;;;;;;;;19.50;18.00;;;;;15.23;66.90;101601.41;5061542;28;45771;-80
2021/10/25 10:18:27;;;;;;;;;19.00;17.75;;;;;15.26;66.08;101596.31;5039101;28;45330;-81
2021/10/25 10:21:00;;;;;;;;;22.25;19.50;;;;;15.30;66.05;101586.03;5056902;28;45517;-81
2021/10/25 10:23:26;;;;;;;;;19.25;17.00;;;;;15.31;65.99;101576.47;5056132;28;45394;-79
2021/10/25 10:25:57;;;;;;;;;17.00;16.50;;;;;15.47;65.44;101590.97;5057614;28;45525;-81
2021/10/25 10:28:41;;;;;;;;;19.50;16.50;;;;;15.57;65.04;101605.28;5057530;28;45286;-78
2021/10/25 10:31:24;;;;;;;;;17.75;17.00;;;;;15.57;64.60;101602.66;5057253;28;45403;-78
2021/10/25 10:33:54;;;;;;;;;17.25;16.75;;;;;15.51;65.16;101610.25;5056977;28;46155;-78
2021/10/25 10:36:31;;;;;;;;;16.50;15.50;;;;;15.48;64.93;101613.66;5056399;28;45888;-80
2021/10/25 10:39:10;;;;;;;;;20.75;19.25;;;;;15.38;65.60;101604.59;5038554;28;45344;-79
2021/10/25 10:41:44;;;;;;;;;16.00;14.25;;;;;15.40;65.39;101615.97;5056423;28;45487;-79
2021/10/25 10:44:14;;;;;;;;;15.00;13.50;;;;;15.35;65.22;101637.50;5056811;28;46538;-78
2021/10/25 10:46:42;;;;;;;;;11.00;11.00;;;;;15.25;66.02;101631.03;5055695;28;45725;-79
2021/10/25 10:49:21;;;;;;;;;15.75;14.50;;;;;15.20;65.90;101617.81;5038548;28;45397;-79
2021/10/25 10:52:37;;;;;;;;;12.50;10.25;;;;;15.24;65.76;101616.22;5057243;28;45255;-80
2021/10/25 10:55:09;;;;;;;;;15.75;13.75;;;;;15.18;66.41;101619.47;5055347;28;45962;-80
2021/10/25 11:00:41;;;;;;;;;12.00;10.00;;;;;15.02;66.84;101628.41;5056141;28;45354;-78
2021/10/25 11:03:29;;;;;;;;;13.50;12.00;;;;;14.96;67.15;101630.75;5056345;28;45343;-79
2021/10/25 11:05:59;;;;;;;;;11.00;10.00;;;;;14.94;66.99;101628.09;5055667;28;45561;-79
2021/10/25 11:08:34;;;;;;;;;13.50;11.00;;;;;14.93;67.55;101633.28;5056074;28;45733;-79
2021/10/25 11:11:01;;;;;;;;;11.75;11.00;;;;;14.91;67.34;101632.31;5056502;28;45466;-79
2021/10/25 11:13:31;;;;;;;;;12.00;10.25;;;;;14.88;67.45;101619.16;5056351;28;45543;-79
2021/10/25 11:16:16;;;;;;;;;11.25;11.00;;;;;14.92;66.78;101613.25;5055997;28;45572;-81
2021/10/25 11:18:44;;;;;;;;;11.75;9.25;;;;;14.95;67.18;101610.75;5059118;28;45505;-82
2021/10/25 11:24:08;;;;;;;;;13.50;10.00;;;;;15.00;66.76;101623.16;5073519;28;45718;-80
2021/10/25 11:26:47;;;;;;;;;11.00;11.00;;;;;14.94;67.39;101619.41;5058926;28;45518;-82
2021/10/25 11:29:17;;;;;;;;;12.75;12.75;;;;;14.92;67.29;101621.06;5054371;28;45990;-80
2021/10/25 11:31:47;;;;;;;;;14.00;10.25;;;;;14.93;67.06;101609.81;5066696;28;45384;-81
2021/10/25 11:34:17;;;;;;;;;11.75;11.75;;;;;14.98;66.93;101609.16;5078122;28;45353;-83
2021/10/25 11:36:51;;;;;;;;;13.75;12.00;;;;;15.00;67.45;101617.03;5078201;28;45375;-79
2021/10/25 11:39:29;;;;;;;;;15.25;11.00;;;;;15.05;67.39;101612.91;5045452;28;45816;-82
2021/10/25 11:41:54;;;;;;;;;12.50;12.50;;;;;15.13;67.04;101611.47;5057122;28;45195;-80
2021/10/25 11:44:20;;;;;;;;;15.25;12.75;;;;;15.21;66.46;101606.56;5055730;28;45460;-80
2021/10/25 11:46:46;;;;;;;;;13.50;12.00;;;;;15.22;66.51;101602.22;5052533;28;45597;-80
2021/10/25 11:49:19;;;;;;;;;9.50;9.50;;;;;15.26;66.54;101604.13;5038035;28;45356;-80
2021/10/25 11:51:52;;;;;;;;;11.75;10.50;;;;;15.25;66.84;101594.53;5055822;28;45458;-83
2021/10/25 11:54:18;;;;;;;;;12.50;11.00;;;;;15.27;66.53;101605.91;5057463;28;45314;-83
2021/10/25 11:56:55;;;;;;;;;14.00;13.75;;;;;15.33;66.39;101606.13;5055489;28;45804;-81
2021/10/25 11:59:22;;;;;;;;;20.00;15.25;;;;;15.35;66.71;101612.31;5057027;28;45415;-78
2021/10/25 12:01:49;;;;;;;;;11.50;11.50;;;;;15.31;66.72;101608.69;5056554;28;45395;-82
2021/10/25 12:04:18;;;;;;;;;17.00;13.00;;;;;15.29;66.84;101606.84;5057013;28;45466;-83
2021/10/25 12:06:57;;;;;;;;;15.75;12.50;;;;;15.25;66.70;101604.97;5059326;28;46244;-81
2021/10/25 12:09:30;;;;;;;;;13.75;12.50;;;;;15.28;67.10;101608.56;5056025;28;45385;-82
2021/10/25 12:12:05;;;;;;;;;12.50;12.50;;;;;15.30;66.43;101606.91;5055463;28;45508;-81
2021/10/25 12:14:33;;;;;;;;;13.25;12.50;;;;;15.29;66.35;101589.47;5055883;28;45315;-80
2021/10/25 12:17:00;;;;;;;;;16.00;12.00;;;;;15.42;66.89;101593.44;5055351;28;46038;-82
2021/10/25 12:19:27;;;;;;;;;14.75;13.00;;;;;15.47;66.16;101602.34;5055082;28;45756;-78
2021/10/25 12:21:53;;;;;;;;;12.00;12.00;;;;;15.48;66.16;101601.50;5054266;28;45387;-82
2021/10/25 12:24:21;;;;;;;;;7.75;7.75;;;;;15.54;66.31;101598.22;5055084;28;45404;-78
2021/10/25 12:27:01;;;;;;;;;14.50;13.00;;;;;15.50;66.30;101577.16;5055187;28;45522;-81
2021/10/25 12:29:27;;;;;;;;;11.75;11.00;;;;;15.61;65.79;101578.44;5055418;28;45335;-82
2021/10/25 12:32:11;;;;;;;;;9.50;9.50;;;;;15.67;65.67;101581.28;5057126;28;45745;-81
2021/10/25 12:34:47;;;;;;;;;16.25;11.00;;;;;15.65;65.36;101556.84;5056649;28;45240;-84
2021/10/25 12:37:24;;;;;;;;;9.75;9.50;;;;;15.78;65.31;101553.84;5056727;28;45641;-84
2021/10/25 12:39:51;;;;;;;;;10.50;9.50;;;;;15.99;65.36;101560.69;5055850;28;45347;-84
2021/10/25 12:42:17;;;;;;;;;12.00;10.00;;;;;16.09;64.90;101561.88;5058215;28;45392;-81
2021/10/25 12:44:53;;;;;;;;;12.75;12.25;;;;;16.17;64.42;101565.66;5059174;28;45351;-81
2021/10/25 12:47:22;;;;;;;;;15.00;12.50;;;;;16.19;63.95;101556.16;5062952;28;45361;-78
2021/10/25 12:49:56;;;;;;;;;9.00;9.00;;;;;16.19;64.08;101565.69;5063094;28;45348;-80
2021/10/25 12:52:26;;;;;;;;;10.25;10.25;;;;;16.18;63.89;101566.53;5058631;28;45225;-82
2021/10/25 12:54:59;;;;;;;;;8.75;8.50;;;;;16.08;63.51;101536.63;5058596;28;45404;-79
2021/10/25 12:57:32;;;;;;;;;8.50;8.50;;;;;16.21;63.45;101562.28;5058471;28;46150;-83